createdAt,value
2023-05-21T00:02:17.300Z,10.63
2023-05-21T00:12:19.443Z,11.05
2023-05-21T00:22:21.613Z,9.23
2023-05-21T00:32:24.217Z,13.17
2023-05-21T00:42:27.566Z,10.20
2023-05-21T00:52:30.147Z,9.83
2023-05-21T01:02:34.838Z,8.80
2023-05-21T01:12:38.949Z,7.05
2023-05-21T01:22:51.825Z,8.13
2023-05-21T01:33:04.232Z,6.75
2023-05-21T01:43:08.292Z,5.85
2023-05-21T01:53:10.650Z,7.97
2023-05-21T02:03:16.469Z,6.53
2023-05-21T02:13:25.032Z,6.47
2023-05-21T02:23:28.419Z,7.57
2023-05-21T02:33:32.091Z,5.73
2023-05-21T02:43:34.585Z,5.65
2023-05-21T02:53:36.880Z,6.67
2023-05-21T03:03:39.252Z,5.50
2023-05-21T03:13:42.752Z,6.63
2023-05-21T03:23:45.039Z,9.87
2023-05-21T03:33:47.758Z,8.23
2023-05-21T03:43:58.294Z,7.22
2023-05-21T03:54:05.794Z,6.55
2023-05-21T04:04:10.006Z,8.38
2023-05-21T04:14:12.810Z,6.97
2023-05-21T04:24:14.930Z,6.13
2023-05-21T04:34:34.263Z,10.47
2023-05-21T04:44:38.383Z,6.97
2023-05-21T04:54:42.012Z,6.30
2023-05-21T05:04:44.372Z,7.32
2023-05-21T05:14:46.590Z,6.80
2023-05-21T05:24:48.891Z,7.57
2023-05-21T05:34:51.384Z,8.88
2023-05-21T05:44:53.608Z,9.20
2023-05-21T05:54:55.933Z,8.30
2023-05-21T06:04:58.409Z,7.38
2023-05-21T06:15:01.716Z,7.85
2023-05-21T06:25:05.884Z,7.38
2023-05-21T06:35:09.460Z,9.80
2023-05-21T06:45:12.269Z,8.52
2023-05-21T06:55:18.679Z,9.07
2023-05-21T07:05:39.776Z,10.45
2023-05-21T07:15:42.388Z,12.07
2023-05-21T07:25:44.691Z,10.80
2023-05-21T07:35:49.174Z,11.10
2023-05-21T07:45:51.596Z,11.68
2023-05-21T07:55:54.344Z,10.07
2023-05-21T08:06:01.141Z,11.00
2023-05-21T08:16:03.701Z,11.85
2023-05-21T08:26:06.934Z,11.43
2023-05-21T08:36:11.150Z,12.52
2023-05-21T08:46:22.064Z,13.15
2023-05-21T08:56:24.760Z,14.07
2023-05-21T09:06:33.940Z,15.25
2023-05-21T09:16:38.587Z,13.73
2023-05-21T09:26:44.340Z,11.63
2023-05-21T09:36:51.924Z,11.80
2023-05-21T09:47:00.556Z,12.50
2023-05-21T09:57:03.124Z,15.13
2023-05-21T10:07:05.478Z,14.05
2023-05-21T10:17:07.754Z,14.93
2023-05-21T10:27:10.443Z,14.13
2023-05-21T10:37:13.048Z,17.15
2023-05-21T10:47:28.988Z,16.70
2023-05-21T10:58:10.032Z,15.23
2023-05-21T11:08:23.548Z,14.98
2023-05-21T11:18:38.423Z,14.85
2023-05-21T11:28:41.720Z,15.30
2023-05-21T11:39:23.049Z,17.25
2023-05-21T11:49:25.276Z,16.83
2023-05-21T11:59:27.624Z,16.13
2023-05-21T12:09:29.973Z,15.80
2023-05-21T12:19:33.876Z,19.23
2023-05-21T12:29:38.491Z,19.70
2023-05-21T12:39:47.496Z,18.23
2023-05-21T12:49:50.041Z,15.05
2023-05-21T12:59:59.844Z,16.33
2023-05-21T13:10:02.994Z,17.00
2023-05-21T13:20:10.467Z,14.80
2023-05-21T13:30:13.697Z,16.50
2023-05-21T13:40:16.799Z,13.60
2023-05-21T13:50:19.202Z,13.88
2023-05-21T14:00:21.630Z,13.45
2023-05-21T14:10:23.946Z,12.48
2023-05-21T14:20:26.364Z,13.68
2023-05-21T14:30:28.527Z,14.40
2023-05-21T14:40:30.809Z,13.32
2023-05-21T14:50:32.979Z,12.65
2023-05-21T15:00:36.173Z,11.15
2023-05-21T15:10:38.748Z,11.68
2023-05-21T15:20:41.538Z,11.80
2023-05-21T15:30:43.987Z,12.60
2023-05-21T15:40:47.537Z,13.00
2023-05-21T15:50:50.107Z,12.95
2023-05-21T16:00:52.567Z,14.27
2023-05-21T16:10:57.121Z,13.55
2023-05-21T16:20:59.420Z,22.58
2023-05-21T16:31:01.905Z,16.35
2023-05-21T16:41:04.225Z,16.30
2023-05-21T16:51:06.513Z,15.02
2023-05-21T17:01:08.813Z,15.85
2023-05-21T17:11:11.154Z,16.08
2023-05-21T17:21:13.728Z,14.52
2023-05-21T17:31:16.359Z,15.57
2023-05-21T17:41:21.765Z,15.82
2023-05-21T17:51:24.109Z,14.48
2023-05-21T18:01:26.378Z,15.32
2023-05-21T18:11:28.741Z,15.45
2023-05-21T18:21:31.463Z,15.52
2023-05-21T18:31:34.025Z,16.45
2023-05-21T18:41:37.462Z,15.73
2023-05-21T18:51:40.986Z,15.50
2023-05-21T19:01:43.290Z,15.23
2023-05-21T19:11:45.544Z,16.95
2023-05-21T19:21:47.795Z,17.45
2023-05-21T19:31:50.038Z,20.05
2023-05-21T19:41:53.040Z,10.77
2023-05-21T19:51:56.050Z,9.60
2023-05-21T20:01:58.213Z,8.38
2023-05-21T20:12:00.475Z,11.65
2023-05-21T20:22:02.674Z,10.35
2023-05-21T20:32:05.405Z,10.75
2023-05-21T20:42:10.636Z,11.55
2023-05-21T20:52:14.232Z,10.18
2023-05-21T21:02:16.790Z,11.43
2023-05-21T21:12:25.258Z,11.40
2023-05-21T21:22:28.875Z,13.70
2023-05-21T21:32:31.111Z,7.82
2023-05-21T21:42:33.505Z,7.45
2023-05-21T21:52:39.905Z,12.45
2023-05-21T22:02:42.870Z,14.18
2023-05-21T22:12:46.142Z,11.27
2023-05-21T22:22:48.472Z,11.75
2023-05-21T22:32:50.914Z,12.73
2023-05-21T22:42:53.113Z,12.45
2023-05-21T22:52:55.475Z,15.52
2023-05-21T23:02:57.699Z,15.75
2023-05-21T23:13:00.161Z,16.75
2023-05-21T23:23:02.391Z,15.43
2023-05-21T23:33:04.595Z,18.08
2023-05-21T23:43:07.778Z,17.23
2023-05-21T23:53:10.396Z,18.08
